sensor_id;sensor_type;location;lat;lon;timestamp;P1;durP1;ratioP1;P2;durP2;ratioP2
58553;SDS011;48119;53.218;6.576;2022-10-16T00:00:39;5.00;;;2.00;;
58553;SDS011;48119;53.218;6.576;2022-10-16T00:03:06;5.93;;;2.15;;
58553;SDS011;48119;53.218;6.576;2022-10-16T00:05:33;5.05;;;2.10;;
58553;SDS011;48119;53.218;6.576;2022-10-16T00:08:04;6.45;;;2.78;;
58553;SDS011;48119;53.218;6.576;2022-10-16T00:10:32;6.40;;;2.28;;
58553;SDS011;48119;53.218;6.576;2022-10-16T00:12:58;5.70;;;2.35;;
58553;SDS011;48119;53.218;6.576;2022-10-16T00:15:24;6.68;;;1.92;;
58553;SDS011;48119;53.218;6.576;2022-10-16T00:17:50;9.40;;;2.40;;
58553;SDS011;48119;53.218;6.576;2022-10-16T00:20:16;6.28;;;1.92;;
58553;SDS011;48119;53.218;6.576;2022-10-16T00:22:41;3.35;;;1.55;;
58553;SDS011;48119;53.218;6.576;2022-10-16T00:25:07;11.23;;;2.03;;
58553;SDS011;48119;53.218;6.576;2022-10-16T00:27:33;7.70;;;2.25;;
58553;SDS011;48119;53.218;6.576;2022-10-16T00:29:59;7.45;;;2.10;;
58553;SDS011;48119;53.218;6.576;2022-10-16T00:32:25;4.22;;;1.83;;
58553;SDS011;48119;53.218;6.576;2022-10-16T00:34:51;6.97;;;2.28;;
58553;SDS011;48119;53.218;6.576;2022-10-16T00:37:19;3.90;;;1.48;;
58553;SDS011;48119;53.218;6.576;2022-10-16T00:39:45;7.60;;;2.67;;
58553;SDS011;48119;53.218;6.576;2022-10-16T00:42:15;4.78;;;2.13;;
58553;SDS011;48119;53.218;6.576;2022-10-16T00:44:53;5.72;;;2.00;;
58553;SDS011;48119;53.218;6.576;2022-10-16T00:47:37;6.38;;;1.83;;
58553;SDS011;48119;53.218;6.576;2022-10-16T00:50:16;4.45;;;1.75;;
58553;SDS011;48119;53.218;6.576;2022-10-16T00:52:50;7.53;;;2.28;;
58553;SDS011;48119;53.218;6.576;2022-10-16T00:55:17;6.15;;;1.98;;
58553;SDS011;48119;53.218;6.576;2022-10-16T00:57:53;6.03;;;1.48;;
58553;SDS011;48119;53.218;6.576;2022-10-16T01:00:24;4.03;;;1.63;;
58553;SDS011;48119;53.218;6.576;2022-10-16T01:02:58;5.93;;;1.80;;
58553;SDS011;48119;53.218;6.576;2022-10-16T01:05:42;9.73;;;2.28;;
58553;SDS011;48119;53.218;6.576;2022-10-16T01:08:22;5.32;;;2.10;;
58553;SDS011;48119;53.218;6.576;2022-10-16T01:11:15;4.25;;;1.95;;
58553;SDS011;48119;53.218;6.576;2022-10-16T01:13:55;3.28;;;1.60;;
58553;SDS011;48119;53.218;6.576;2022-10-16T01:16:41;4.30;;;1.20;;
58553;SDS011;48119;53.218;6.576;2022-10-16T01:19:16;7.03;;;1.77;;
58553;SDS011;48119;53.218;6.576;2022-10-16T01:22:02;7.40;;;1.90;;
58553;SDS011;48119;53.218;6.576;2022-10-16T01:34:59;4.05;;;1.45;;
58553;SDS011;48119;53.218;6.576;2022-10-16T01:40:15;6.60;;;1.50;;
58553;SDS011;48119;53.218;6.576;2022-10-16T01:42:48;3.38;;;1.60;;
58553;SDS011;48119;53.218;6.576;2022-10-16T01:45:19;3.95;;;1.55;;
58553;SDS011;48119;53.218;6.576;2022-10-16T01:47:46;5.00;;;1.95;;
58553;SDS011;48119;53.218;6.576;2022-10-16T01:50:14;2.70;;;0.95;;
58553;SDS011;48119;53.218;6.576;2022-10-16T01:52:42;5.82;;;1.92;;
58553;SDS011;48119;53.218;6.576;2022-10-16T01:55:11;4.38;;;1.38;;
58553;SDS011;48119;53.218;6.576;2022-10-16T01:57:43;7.35;;;1.60;;
58553;SDS011;48119;53.218;6.576;2022-10-16T02:00:11;3.45;;;1.63;;
58553;SDS011;48119;53.218;6.576;2022-10-16T02:02:40;4.00;;;1.63;;
58553;SDS011;48119;53.218;6.576;2022-10-16T02:05:20;6.72;;;2.00;;
58553;SDS011;48119;53.218;6.576;2022-10-16T02:07:59;6.80;;;1.88;;
58553;SDS011;48119;53.218;6.576;2022-10-16T02:10:25;2.70;;;1.20;;
58553;SDS011;48119;53.218;6.576;2022-10-16T02:15:55;5.43;;;2.08;;
58553;SDS011;48119;53.218;6.576;2022-10-16T02:18:21;6.68;;;1.88;;
58553;SDS011;48119;53.218;6.576;2022-10-16T02:20:51;9.10;;;2.22;;
58553;SDS011;48119;53.218;6.576;2022-10-16T02:23:27;5.22;;;1.90;;
58553;SDS011;48119;53.218;6.576;2022-10-16T02:26:10;3.13;;;1.40;;
58553;SDS011;48119;53.218;6.576;2022-10-16T02:28:52;4.05;;;1.55;;
58553;SDS011;48119;53.218;6.576;2022-10-16T02:31:24;6.72;;;1.83;;
58553;SDS011;48119;53.218;6.576;2022-10-16T02:33:53;5.45;;;1.65;;
58553;SDS011;48119;53.218;6.576;2022-10-16T02:36:21;5.35;;;1.30;;
58553;SDS011;48119;53.218;6.576;2022-10-16T02:38:47;14.00;;;2.33;;
58553;SDS011;48119;53.218;6.576;2022-10-16T02:41:13;11.70;;;1.88;;
58553;SDS011;48119;53.218;6.576;2022-10-16T02:43:39;4.00;;;1.58;;
58553;SDS011;48119;53.218;6.576;2022-10-16T02:46:05;6.15;;;1.95;;
58553;SDS011;48119;53.218;6.576;2022-10-16T02:48:31;4.40;;;1.63;;
58553;SDS011;48119;53.218;6.576;2022-10-16T02:50:56;3.80;;;1.42;;
58553;SDS011;48119;53.218;6.576;2022-10-16T02:53:22;4.82;;;1.80;;
58553;SDS011;48119;53.218;6.576;2022-10-16T02:55:48;5.55;;;2.15;;
58553;SDS011;48119;53.218;6.576;2022-10-16T02:58:14;3.63;;;1.45;;
58553;SDS011;48119;53.218;6.576;2022-10-16T03:00:39;7.68;;;2.13;;
58553;SDS011;48119;53.218;6.576;2022-10-16T03:03:05;4.63;;;1.65;;
58553;SDS011;48119;53.218;6.576;2022-10-16T03:05:31;5.68;;;1.92;;
58553;SDS011;48119;53.218;6.576;2022-10-16T03:07:57;6.25;;;1.65;;
58553;SDS011;48119;53.218;6.576;2022-10-16T03:10:25;2.28;;;1.23;;
58553;SDS011;48119;53.218;6.576;2022-10-16T03:12:50;4.68;;;2.17;;
58553;SDS011;48119;53.218;6.576;2022-10-16T03:15:16;3.28;;;1.48;;
58553;SDS011;48119;53.218;6.576;2022-10-16T03:17:42;4.45;;;1.60;;
58553;SDS011;48119;53.218;6.576;2022-10-16T03:20:08;5.45;;;1.75;;
58553;SDS011;48119;53.218;6.576;2022-10-16T03:22:34;3.60;;;1.75;;
58553;SDS011;48119;53.218;6.576;2022-10-16T03:25:00;4.05;;;1.42;;
58553;SDS011;48119;53.218;6.576;2022-10-16T03:27:26;3.25;;;1.30;;
58553;SDS011;48119;53.218;6.576;2022-10-16T03:29:51;5.40;;;1.73;;
58553;SDS011;48119;53.218;6.576;2022-10-16T03:32:17;5.00;;;1.70;;
58553;SDS011;48119;53.218;6.576;2022-10-16T03:34:43;6.97;;;1.60;;
58553;SDS011;48119;53.218;6.576;2022-10-16T03:37:09;5.22;;;1.60;;
58553;SDS011;48119;53.218;6.576;2022-10-16T03:39:35;7.47;;;1.33;;
58553;SDS011;48119;53.218;6.576;2022-10-16T03:42:00;6.80;;;1.42;;
58553;SDS011;48119;53.218;6.576;2022-10-16T03:44:26;4.63;;;1.27;;
58553;SDS011;48119;53.218;6.576;2022-10-16T03:46:52;4.97;;;1.50;;
58553;SDS011;48119;53.218;6.576;2022-10-16T03:49:17;5.85;;;2.53;;
58553;SDS011;48119;53.218;6.576;2022-10-16T03:51:43;4.07;;;1.85;;
58553;SDS011;48119;53.218;6.576;2022-10-16T03:54:09;2.75;;;1.20;;
58553;SDS011;48119;53.218;6.576;2022-10-16T03:56:35;4.05;;;1.40;;
58553;SDS011;48119;53.218;6.576;2022-10-16T03:59:01;4.55;;;1.40;;
58553;SDS011;48119;53.218;6.576;2022-10-16T04:01:26;4.35;;;1.50;;
58553;SDS011;48119;53.218;6.576;2022-10-16T04:03:52;3.42;;;1.55;;
58553;SDS011;48119;53.218;6.576;2022-10-16T04:06:18;3.83;;;1.35;;
58553;SDS011;48119;53.218;6.576;2022-10-16T04:08:44;4.38;;;1.90;;
58553;SDS011;48119;53.218;6.576;2022-10-16T04:11:09;3.78;;;1.60;;
58553;SDS011;48119;53.218;6.576;2022-10-16T04:13:35;4.82;;;1.38;;
58553;SDS011;48119;53.218;6.576;2022-10-16T04:16:01;4.10;;;1.48;;
58553;SDS011;48119;53.218;6.576;2022-10-16T04:18:27;2.08;;;1.20;;
58553;SDS011;48119;53.218;6.576;2022-10-16T04:20:54;4.55;;;1.42;;
58553;SDS011;48119;53.218;6.576;2022-10-16T04:23:20;4.35;;;1.52;;
58553;SDS011;48119;53.218;6.576;2022-10-16T04:25:45;4.80;;;1.67;;
58553;SDS011;48119;53.218;6.576;2022-10-16T04:28:11;4.13;;;1.30;;
58553;SDS011;48119;53.218;6.576;2022-10-16T04:30:38;4.85;;;1.42;;
58553;SDS011;48119;53.218;6.576;2022-10-16T04:33:04;4.25;;;1.65;;
58553;SDS011;48119;53.218;6.576;2022-10-16T04:35:30;6.40;;;1.75;;
58553;SDS011;48119;53.218;6.576;2022-10-16T04:37:59;4.10;;;1.85;;
58553;SDS011;48119;53.218;6.576;2022-10-16T04:40:24;3.03;;;1.60;;
58553;SDS011;48119;53.218;6.576;2022-10-16T04:42:50;3.47;;;1.38;;
58553;SDS011;48119;53.218;6.576;2022-10-16T04:45:16;5.07;;;1.98;;
58553;SDS011;48119;53.218;6.576;2022-10-16T04:47:42;4.70;;;1.70;;
58553;SDS011;48119;53.218;6.576;2022-10-16T04:50:08;5.60;;;1.58;;
58553;SDS011;48119;53.218;6.576;2022-10-16T04:52:34;2.65;;;1.20;;
58553;SDS011;48119;53.218;6.576;2022-10-16T04:54:59;6.05;;;1.67;;
58553;SDS011;48119;53.218;6.576;2022-10-16T04:57:27;5.05;;;1.88;;
58553;SDS011;48119;53.218;6.576;2022-10-16T04:59:54;2.65;;;1.17;;
58553;SDS011;48119;53.218;6.576;2022-10-16T05:02:20;6.43;;;1.45;;
58553;SDS011;48119;53.218;6.576;2022-10-16T05:04:46;2.25;;;1.40;;
58553;SDS011;48119;53.218;6.576;2022-10-16T05:07:12;3.55;;;1.60;;
58553;SDS011;48119;53.218;6.576;2022-10-16T05:09:38;4.38;;;1.30;;
58553;SDS011;48119;53.218;6.576;2022-10-16T05:12:03;3.70;;;1.83;;
58553;SDS011;48119;53.218;6.576;2022-10-16T05:14:29;3.42;;;1.50;;
58553;SDS011;48119;53.218;6.576;2022-10-16T05:16:55;4.25;;;1.40;;
58553;SDS011;48119;53.218;6.576;2022-10-16T05:19:21;2.80;;;1.50;;
58553;SDS011;48119;53.218;6.576;2022-10-16T05:21:47;4.60;;;1.80;;
58553;SDS011;48119;53.218;6.576;2022-10-16T05:24:13;5.90;;;1.67;;
58553;SDS011;48119;53.218;6.576;2022-10-16T05:26:39;4.40;;;2.05;;
58553;SDS011;48119;53.218;6.576;2022-10-16T05:29:04;3.05;;;1.50;;
58553;SDS011;48119;53.218;6.576;2022-10-16T05:31:30;5.35;;;1.70;;
58553;SDS011;48119;53.218;6.576;2022-10-16T05:33:59;5.50;;;1.77;;
58553;SDS011;48119;53.218;6.576;2022-10-16T05:36:25;3.72;;;1.60;;
58553;SDS011;48119;53.218;6.576;2022-10-16T05:38:51;5.88;;;2.13;;
58553;SDS011;48119;53.218;6.576;2022-10-16T05:41:17;6.18;;;1.42;;
58553;SDS011;48119;53.218;6.576;2022-10-16T05:43:46;3.05;;;1.50;;
58553;SDS011;48119;53.218;6.576;2022-10-16T05:46:13;3.78;;;1.65;;
58553;SDS011;48119;53.218;6.576;2022-10-16T05:48:39;5.18;;;1.63;;
58553;SDS011;48119;53.218;6.576;2022-10-16T05:51:05;2.53;;;1.30;;
58553;SDS011;48119;53.218;6.576;2022-10-16T05:53:33;4.78;;;1.80;;
58553;SDS011;48119;53.218;6.576;2022-10-16T05:56:01;6.07;;;2.15;;
58553;SDS011;48119;53.218;6.576;2022-10-16T05:58:30;5.43;;;1.83;;
58553;SDS011;48119;53.218;6.576;2022-10-16T06:01:01;5.20;;;2.40;;
58553;SDS011;48119;53.218;6.576;2022-10-16T06:03:32;4.13;;;1.50;;
58553;SDS011;48119;53.218;6.576;2022-10-16T06:05:58;2.58;;;1.77;;
58553;SDS011;48119;53.218;6.576;2022-10-16T06:08:24;3.95;;;1.83;;
58553;SDS011;48119;53.218;6.576;2022-10-16T06:11:03;4.65;;;1.58;;
58553;SDS011;48119;53.218;6.576;2022-10-16T06:13:30;3.65;;;1.83;;
58553;SDS011;48119;53.218;6.576;2022-10-16T06:15:56;3.10;;;1.50;;
58553;SDS011;48119;53.218;6.576;2022-10-16T06:18:24;4.55;;;2.00;;
58553;SDS011;48119;53.218;6.576;2022-10-16T06:20:51;3.60;;;1.67;;
58553;SDS011;48119;53.218;6.576;2022-10-16T06:23:17;3.30;;;1.48;;
58553;SDS011;48119;53.218;6.576;2022-10-16T06:25:42;3.25;;;1.92;;
58553;SDS011;48119;53.218;6.576;2022-10-16T06:28:08;5.28;;;1.65;;
58553;SDS011;48119;53.218;6.576;2022-10-16T06:30:34;7.97;;;2.17;;
58553;SDS011;48119;53.218;6.576;2022-10-16T06:32:59;3.92;;;2.08;;
58553;SDS011;48119;53.218;6.576;2022-10-16T06:35:25;5.20;;;1.83;;
58553;SDS011;48119;53.218;6.576;2022-10-16T06:37:52;5.93;;;1.70;;
58553;SDS011;48119;53.218;6.576;2022-10-16T06:40:18;6.30;;;1.98;;
58553;SDS011;48119;53.218;6.576;2022-10-16T06:42:44;3.83;;;1.65;;
58553;SDS011;48119;53.218;6.576;2022-10-16T06:45:10;4.00;;;1.60;;
58553;SDS011;48119;53.218;6.576;2022-10-16T06:47:36;6.70;;;2.30;;
58553;SDS011;48119;53.218;6.576;2022-10-16T06:50:02;5.13;;;1.80;;
58553;SDS011;48119;53.218;6.576;2022-10-16T06:52:28;4.65;;;1.80;;
58553;SDS011;48119;53.218;6.576;2022-10-16T06:54:54;6.10;;;2.13;;
58553;SDS011;48119;53.218;6.576;2022-10-16T06:57:20;5.50;;;2.10;;
58553;SDS011;48119;53.218;6.576;2022-10-16T06:59:45;3.63;;;1.55;;
58553;SDS011;48119;53.218;6.576;2022-10-16T07:02:11;7.53;;;2.22;;
58553;SDS011;48119;53.218;6.576;2022-10-16T07:04:37;5.50;;;1.92;;
58553;SDS011;48119;53.218;6.576;2022-10-16T07:07:02;4.68;;;2.08;;
58553;SDS011;48119;53.218;6.576;2022-10-16T07:09:28;5.72;;;2.25;;
58553;SDS011;48119;53.218;6.576;2022-10-16T07:11:54;5.03;;;2.08;;
58553;SDS011;48119;53.218;6.576;2022-10-16T07:14:20;3.50;;;1.55;;
58553;SDS011;48119;53.218;6.576;2022-10-16T07:16:47;4.55;;;1.95;;
58553;SDS011;48119;53.218;6.576;2022-10-16T07:19:13;4.45;;;2.10;;
58553;SDS011;48119;53.218;6.576;2022-10-16T07:21:41;3.60;;;2.00;;
58553;SDS011;48119;53.218;6.576;2022-10-16T07:24:11;3.42;;;1.75;;
58553;SDS011;48119;53.218;6.576;2022-10-16T07:26:38;3.88;;;1.65;;
58553;SDS011;48119;53.218;6.576;2022-10-16T07:29:14;8.70;;;1.98;;
58553;SDS011;48119;53.218;6.576;2022-10-16T07:31:42;3.75;;;1.75;;
58553;SDS011;48119;53.218;6.576;2022-10-16T07:34:09;12.23;;;2.13;;
58553;SDS011;48119;53.218;6.576;2022-10-16T07:36:36;2.95;;;1.70;;
58553;SDS011;48119;53.218;6.576;2022-10-16T07:39:02;3.53;;;1.40;;
58553;SDS011;48119;53.218;6.576;2022-10-16T07:41:28;4.80;;;1.63;;
58553;SDS011;48119;53.218;6.576;2022-10-16T07:43:53;4.47;;;1.95;;
58553;SDS011;48119;53.218;6.576;2022-10-16T07:46:21;5.00;;;2.78;;
58553;SDS011;48119;53.218;6.576;2022-10-16T07:48:48;3.88;;;2.08;;
58553;SDS011;48119;53.218;6.576;2022-10-16T07:51:14;3.75;;;1.98;;
58553;SDS011;48119;53.218;6.576;2022-10-16T07:53:42;7.63;;;2.25;;
58553;SDS011;48119;53.218;6.576;2022-10-16T07:56:08;4.63;;;1.98;;
58553;SDS011;48119;53.218;6.576;2022-10-16T07:58:34;5.72;;;1.58;;
58553;SDS011;48119;53.218;6.576;2022-10-16T08:01:03;4.13;;;2.15;;
58553;SDS011;48119;53.218;6.576;2022-10-16T08:03:30;4.75;;;1.73;;
58553;SDS011;48119;53.218;6.576;2022-10-16T08:05:56;4.78;;;1.48;;
58553;SDS011;48119;53.218;6.576;2022-10-16T08:08:23;3.58;;;1.85;;
58553;SDS011;48119;53.218;6.576;2022-10-16T08:10:48;4.35;;;1.92;;
58553;SDS011;48119;53.218;6.576;2022-10-16T08:13:14;5.20;;;1.77;;
58553;SDS011;48119;53.218;6.576;2022-10-16T08:15:43;6.18;;;2.05;;
58553;SDS011;48119;53.218;6.576;2022-10-16T08:18:11;3.88;;;2.40;;
58553;SDS011;48119;53.218;6.576;2022-10-16T08:20:38;5.70;;;2.03;;
58553;SDS011;48119;53.218;6.576;2022-10-16T08:23:04;7.78;;;2.10;;
58553;SDS011;48119;53.218;6.576;2022-10-16T08:25:30;4.45;;;2.10;;
58553;SDS011;48119;53.218;6.576;2022-10-16T08:27:56;3.72;;;2.00;;
58553;SDS011;48119;53.218;6.576;2022-10-16T08:30:22;5.25;;;1.80;;
58553;SDS011;48119;53.218;6.576;2022-10-16T08:32:49;3.38;;;1.55;;
58553;SDS011;48119;53.218;6.576;2022-10-16T08:35:14;4.32;;;1.88;;
58553;SDS011;48119;53.218;6.576;2022-10-16T08:37:41;3.35;;;1.38;;
58553;SDS011;48119;53.218;6.576;2022-10-16T08:40:12;9.77;;;1.98;;
58553;SDS011;48119;53.218;6.576;2022-10-16T08:45:49;4.03;;;1.65;;
58553;SDS011;48119;53.218;6.576;2022-10-16T08:51:21;3.30;;;1.42;;
58553;SDS011;48119;53.218;6.576;2022-10-16T08:53:56;6.38;;;1.70;;
58553;SDS011;48119;53.218;6.576;2022-10-16T08:56:23;7.07;;;1.50;;
58553;SDS011;48119;53.218;6.576;2022-10-16T08:58:52;4.38;;;1.50;;
58553;SDS011;48119;53.218;6.576;2022-10-16T09:01:20;6.68;;;1.80;;
58553;SDS011;48119;53.218;6.576;2022-10-16T09:06:41;5.38;;;1.35;;
58553;SDS011;48119;53.218;6.576;2022-10-16T09:09:25;5.20;;;1.88;;
58553;SDS011;48119;53.218;6.576;2022-10-16T09:12:04;6.40;;;1.80;;
58553;SDS011;48119;53.218;6.576;2022-10-16T09:17:36;6.25;;;1.40;;
58553;SDS011;48119;53.218;6.576;2022-10-16T09:20:32;3.95;;;1.33;;
58553;SDS011;48119;53.218;6.576;2022-10-16T09:23:13;6.25;;;1.75;;
58553;SDS011;48119;53.218;6.576;2022-10-16T09:25:41;5.30;;;2.08;;
58553;SDS011;48119;53.218;6.576;2022-10-16T09:28:13;4.88;;;1.30;;
58553;SDS011;48119;53.218;6.576;2022-10-16T09:30:39;7.55;;;2.50;;
58553;SDS011;48119;53.218;6.576;2022-10-16T09:33:06;4.93;;;1.25;;
58553;SDS011;48119;53.218;6.576;2022-10-16T09:38:23;4.88;;;1.75;;
58553;SDS011;48119;53.218;6.576;2022-10-16T09:40:57;8.02;;;1.92;;
58553;SDS011;48119;53.218;6.576;2022-10-16T09:43:25;6.68;;;1.65;;
58553;SDS011;48119;53.218;6.576;2022-10-16T09:46:01;7.05;;;1.90;;
58553;SDS011;48119;53.218;6.576;2022-10-16T09:48:44;14.93;;;2.78;;
58553;SDS011;48119;53.218;6.576;2022-10-16T09:51:18;8.10;;;1.90;;
58553;SDS011;48119;53.218;6.576;2022-10-16T09:53:48;11.07;;;2.25;;
58553;SDS011;48119;53.218;6.576;2022-10-16T09:56:23;7.43;;;2.05;;
58553;SDS011;48119;53.218;6.576;2022-10-16T09:58:51;6.43;;;1.63;;
58553;SDS011;48119;53.218;6.576;2022-10-16T10:01:18;5.07;;;1.60;;
58553;SDS011;48119;53.218;6.576;2022-10-16T10:03:45;8.02;;;1.80;;
58553;SDS011;48119;53.218;6.576;2022-10-16T10:08:52;9.77;;;3.08;;
58553;SDS011;48119;53.218;6.576;2022-10-16T10:11:38;11.13;;;2.53;;
58553;SDS011;48119;53.218;6.576;2022-10-16T10:14:16;4.88;;;2.33;;
58553;SDS011;48119;53.218;6.576;2022-10-16T10:16:53;6.47;;;1.80;;
58553;SDS011;48119;53.218;6.576;2022-10-16T10:19:30;10.32;;;2.35;;
58553;SDS011;48119;53.218;6.576;2022-10-16T10:22:26;8.55;;;2.38;;
58553;SDS011;48119;53.218;6.576;2022-10-16T10:46:51;15.93;;;3.15;;
58553;SDS011;48119;53.218;6.576;2022-10-16T10:54:50;10.65;;;2.28;;
58553;SDS011;48119;53.218;6.576;2022-10-16T10:57:48;9.10;;;2.70;;
58553;SDS011;48119;53.218;6.576;2022-10-16T11:00:21;10.02;;;2.63;;
58553;SDS011;48119;53.218;6.576;2022-10-16T11:05:39;11.43;;;2.63;;
58553;SDS011;48119;53.218;6.576;2022-10-16T11:10:43;11.77;;;3.15;;
58553;SDS011;48119;53.218;6.576;2022-10-16T11:13:23;10.93;;;2.63;;
58553;SDS011;48119;53.218;6.576;2022-10-16T11:15:57;12.00;;;2.58;;
58553;SDS011;48119;53.218;6.576;2022-10-16T11:18:59;9.55;;;2.67;;
58553;SDS011;48119;53.218;6.576;2022-10-16T11:21:44;11.20;;;3.90;;
58553;SDS011;48119;53.218;6.576;2022-10-16T11:24:22;10.30;;;2.90;;
58553;SDS011;48119;53.218;6.576;2022-10-16T11:26:55;7.63;;;1.87;;
58553;SDS011;48119;53.218;6.576;2022-10-16T11:29:26;12.13;;;3.65;;
58553;SDS011;48119;53.218;6.576;2022-10-16T11:32:00;9.48;;;2.97;;
58553;SDS011;48119;53.218;6.576;2022-10-16T11:34:37;10.15;;;2.22;;
58553;SDS011;48119;53.218;6.576;2022-10-16T11:37:41;9.70;;;2.05;;
58553;SDS011;48119;53.218;6.576;2022-10-16T11:43:13;9.85;;;2.85;;
58553;SDS011;48119;53.218;6.576;2022-10-16T11:45:51;7.15;;;2.78;;
58553;SDS011;48119;53.218;6.576;2022-10-16T11:48:24;8.93;;;2.25;;
58553;SDS011;48119;53.218;6.576;2022-10-16T11:56:18;13.73;;;2.45;;
58553;SDS011;48119;53.218;6.576;2022-10-16T12:07:05;11.52;;;2.22;;
58553;SDS011;48119;53.218;6.576;2022-10-16T12:09:36;14.95;;;3.08;;
58553;SDS011;48119;53.218;6.576;2022-10-16T12:12:05;11.07;;;2.88;;
58553;SDS011;48119;53.218;6.576;2022-10-16T12:14:58;12.50;;;2.72;;
58553;SDS011;48119;53.218;6.576;2022-10-16T12:17:36;12.52;;;2.40;;
58553;SDS011;48119;53.218;6.576;2022-10-16T12:25:53;8.55;;;2.78;;
58553;SDS011;48119;53.218;6.576;2022-10-16T12:28:21;13.10;;;3.43;;
58553;SDS011;48119;53.218;6.576;2022-10-16T12:30:53;7.43;;;2.50;;
58553;SDS011;48119;53.218;6.576;2022-10-16T12:35:55;12.23;;;3.10;;
58553;SDS011;48119;53.218;6.576;2022-10-16T12:38:27;12.20;;;3.15;;
58553;SDS011;48119;53.218;6.576;2022-10-16T12:41:01;11.40;;;2.67;;
58553;SDS011;48119;53.218;6.576;2022-10-16T12:48:35;10.10;;;2.88;;
58553;SDS011;48119;53.218;6.576;2022-10-16T12:51:09;12.63;;;3.20;;
58553;SDS011;48119;53.218;6.576;2022-10-16T12:54:21;11.07;;;2.35;;
58553;SDS011;48119;53.218;6.576;2022-10-16T13:15:54;11.07;;;2.50;;
58553;SDS011;48119;53.218;6.576;2022-10-16T13:21:41;7.07;;;2.70;;
58553;SDS011;48119;53.218;6.576;2022-10-16T13:27:55;9.18;;;2.42;;
58553;SDS011;48119;53.218;6.576;2022-10-16T13:30:24;8.10;;;2.90;;
58553;SDS011;48119;53.218;6.576;2022-10-16T13:33:01;12.07;;;2.72;;
58553;SDS011;48119;53.218;6.576;2022-10-16T13:36:01;9.65;;;2.63;;
58553;SDS011;48119;53.218;6.576;2022-10-16T13:38:29;11.32;;;3.17;;
58553;SDS011;48119;53.218;6.576;2022-10-16T13:41:01;10.15;;;3.33;;
58553;SDS011;48119;53.218;6.576;2022-10-16T13:46:12;11.15;;;3.25;;
58553;SDS011;48119;53.218;6.576;2022-10-16T13:48:39;10.98;;;2.70;;
58553;SDS011;48119;53.218;6.576;2022-10-16T13:51:06;9.80;;;2.80;;
58553;SDS011;48119;53.218;6.576;2022-10-16T13:53:41;10.88;;;2.88;;
58553;SDS011;48119;53.218;6.576;2022-10-16T13:56:12;16.33;;;3.70;;
58553;SDS011;48119;53.218;6.576;2022-10-16T13:58:40;14.73;;;3.72;;
58553;SDS011;48119;53.218;6.576;2022-10-16T14:01:25;7.28;;;2.83;;
58553;SDS011;48119;53.218;6.576;2022-10-16T14:04:02;7.40;;;2.40;;
58553;SDS011;48119;53.218;6.576;2022-10-16T14:06:33;11.32;;;2.90;;
58553;SDS011;48119;53.218;6.576;2022-10-16T14:09:04;10.00;;;2.05;;
58553;SDS011;48119;53.218;6.576;2022-10-16T14:11:44;8.23;;;3.03;;
58553;SDS011;48119;53.218;6.576;2022-10-16T14:14:13;7.40;;;2.58;;
58553;SDS011;48119;53.218;6.576;2022-10-16T14:16:41;13.27;;;3.75;;
58553;SDS011;48119;53.218;6.576;2022-10-16T14:19:19;14.00;;;3.53;;
58553;SDS011;48119;53.218;6.576;2022-10-16T14:21:48;12.77;;;3.25;;
58553;SDS011;48119;53.218;6.576;2022-10-16T14:24:33;10.98;;;3.25;;
58553;SDS011;48119;53.218;6.576;2022-10-16T14:27:02;10.93;;;3.00;;
58553;SDS011;48119;53.218;6.576;2022-10-16T14:29:48;11.43;;;3.50;;
58553;SDS011;48119;53.218;6.576;2022-10-16T14:32:20;10.55;;;3.05;;
58553;SDS011;48119;53.218;6.576;2022-10-16T14:34:53;14.20;;;3.70;;
58553;SDS011;48119;53.218;6.576;2022-10-16T14:37:25;15.35;;;3.58;;
58553;SDS011;48119;53.218;6.576;2022-10-16T14:39:53;15.68;;;3.72;;
58553;SDS011;48119;53.218;6.576;2022-10-16T14:42:20;10.93;;;2.63;;
58553;SDS011;48119;53.218;6.576;2022-10-16T14:44:51;16.08;;;4.18;;
58553;SDS011;48119;53.218;6.576;2022-10-16T14:47:19;7.40;;;2.95;;
58553;SDS011;48119;53.218;6.576;2022-10-16T14:49:50;8.98;;;2.78;;
58553;SDS011;48119;53.218;6.576;2022-10-16T14:52:16;12.35;;;3.42;;
58553;SDS011;48119;53.218;6.576;2022-10-16T14:54:42;9.25;;;3.22;;
58553;SDS011;48119;53.218;6.576;2022-10-16T14:57:18;11.80;;;2.70;;
58553;SDS011;48119;53.218;6.576;2022-10-16T14:59:46;10.07;;;3.40;;
58553;SDS011;48119;53.218;6.576;2022-10-16T15:04:53;12.73;;;4.53;;
58553;SDS011;48119;53.218;6.576;2022-10-16T15:07:20;11.25;;;3.60;;
58553;SDS011;48119;53.218;6.576;2022-10-16T15:09:45;11.32;;;3.53;;
58553;SDS011;48119;53.218;6.576;2022-10-16T15:12:11;9.95;;;3.15;;
58553;SDS011;48119;53.218;6.576;2022-10-16T15:14:37;15.13;;;4.28;;
58553;SDS011;48119;53.218;6.576;2022-10-16T15:17:03;9.25;;;2.90;;
58553;SDS011;48119;53.218;6.576;2022-10-16T15:19:29;14.82;;;4.15;;
58553;SDS011;48119;53.218;6.576;2022-10-16T15:21:55;12.25;;;3.05;;
58553;SDS011;48119;53.218;6.576;2022-10-16T15:24:22;10.68;;;2.75;;
58553;SDS011;48119;53.218;6.576;2022-10-16T15:26:47;11.07;;;3.60;;
58553;SDS011;48119;53.218;6.576;2022-10-16T15:29:14;20.58;;;4.55;;
58553;SDS011;48119;53.218;6.576;2022-10-16T15:31:40;13.48;;;4.38;;
58553;SDS011;48119;53.218;6.576;2022-10-16T15:34:09;10.43;;;3.42;;
58553;SDS011;48119;53.218;6.576;2022-10-16T15:36:36;10.57;;;3.65;;
58553;SDS011;48119;53.218;6.576;2022-10-16T15:39:03;11.32;;;3.53;;
58553;SDS011;48119;53.218;6.576;2022-10-16T15:41:30;12.77;;;2.92;;
58553;SDS011;48119;53.218;6.576;2022-10-16T15:43:56;10.18;;;2.80;;
58553;SDS011;48119;53.218;6.576;2022-10-16T15:46:22;14.15;;;3.75;;
58553;SDS011;48119;53.218;6.576;2022-10-16T15:48:49;11.75;;;3.40;;
58553;SDS011;48119;53.218;6.576;2022-10-16T15:51:16;10.60;;;3.20;;
58553;SDS011;48119;53.218;6.576;2022-10-16T15:53:43;15.73;;;3.65;;
58553;SDS011;48119;53.218;6.576;2022-10-16T15:56:11;15.60;;;5.15;;
58553;SDS011;48119;53.218;6.576;2022-10-16T15:58:38;10.63;;;3.25;;
58553;SDS011;48119;53.218;6.576;2022-10-16T16:01:03;17.10;;;3.65;;
58553;SDS011;48119;53.218;6.576;2022-10-16T16:03:30;13.20;;;4.43;;
58553;SDS011;48119;53.218;6.576;2022-10-16T16:05:57;10.40;;;2.90;;
58553;SDS011;48119;53.218;6.576;2022-10-16T16:08:23;8.88;;;3.03;;
58553;SDS011;48119;53.218;6.576;2022-10-16T16:10:58;10.13;;;3.80;;
58553;SDS011;48119;53.218;6.576;2022-10-16T16:15:50;11.98;;;4.65;;
58553;SDS011;48119;53.218;6.576;2022-10-16T16:18:16;12.23;;;5.13;;
58553;SDS011;48119;53.218;6.576;2022-10-16T16:20:44;11.57;;;4.50;;
58553;SDS011;48119;53.218;6.576;2022-10-16T16:23:10;15.20;;;5.15;;
58553;SDS011;48119;53.218;6.576;2022-10-16T16:25:35;11.85;;;4.13;;
58553;SDS011;48119;53.218;6.576;2022-10-16T16:28:01;12.27;;;3.65;;
58553;SDS011;48119;53.218;6.576;2022-10-16T16:30:27;9.98;;;4.35;;
58553;SDS011;48119;53.218;6.576;2022-10-16T16:32:53;13.30;;;5.13;;
58553;SDS011;48119;53.218;6.576;2022-10-16T16:35:18;18.20;;;6.10;;
58553;SDS011;48119;53.218;6.576;2022-10-16T16:37:44;9.57;;;4.38;;
58553;SDS011;48119;53.218;6.576;2022-10-16T16:40:12;13.57;;;4.20;;
58553;SDS011;48119;53.218;6.576;2022-10-16T16:42:38;10.07;;;4.07;;
58553;SDS011;48119;53.218;6.576;2022-10-16T16:45:04;14.88;;;5.15;;
58553;SDS011;48119;53.218;6.576;2022-10-16T16:47:30;19.02;;;4.57;;
58553;SDS011;48119;53.218;6.576;2022-10-16T16:49:56;8.52;;;3.30;;
58553;SDS011;48119;53.218;6.576;2022-10-16T16:52:22;11.55;;;4.05;;
58553;SDS011;48119;53.218;6.576;2022-10-16T16:54:48;13.10;;;4.68;;
58553;SDS011;48119;53.218;6.576;2022-10-16T16:57:19;12.60;;;3.38;;
58553;SDS011;48119;53.218;6.576;2022-10-16T16:59:45;14.55;;;5.65;;
58553;SDS011;48119;53.218;6.576;2022-10-16T17:02:11;11.20;;;4.63;;
58553;SDS011;48119;53.218;6.576;2022-10-16T17:04:37;14.15;;;4.43;;
58553;SDS011;48119;53.218;6.576;2022-10-16T17:07:02;9.50;;;4.18;;